sensor_id;sensor_type;location;lat;lon;timestamp;noise_LAeq;noise_LA_min;noise_LA_max;noise_LA01;noise_LA95
69609;Laerm;56815;52.320;4.858;2023-11-18T00:03:03;38.42;30.84;52.56;;
69609;Laerm;56815;52.320;4.858;2023-11-18T00:03:16;39.92;32.69;48.17;;
69609;Laerm;56815;52.320;4.858;2023-11-18T00:03:32;41.15;31.62;52.52;;
69609;Laerm;56815;52.320;4.858;2023-11-18T00:05:22;39.17;30.13;59.19;;
69609;Laerm;56815;52.320;4.858;2023-11-18T00:05:33;38.39;32.44;49.23;;
69609;Laerm;56815;52.320;4.858;2023-11-18T00:05:46;40.89;35.53;48.59;;
69609;Laerm;56815;52.320;4.858;2023-11-18T00:06:00;37.98;33.04;52.51;;
69609;Laerm;56815;52.320;4.858;2023-11-18T00:06:10;36.78;31.23;49.12;;
69609;Laerm;56815;52.320;4.858;2023-11-18T00:06:29;37.64;31.35;45.59;;
69609;Laerm;56815;52.320;4.858;2023-11-18T00:10:33;37.16;30.82;50.15;;
69609;Laerm;56815;52.320;4.858;2023-11-18T00:10:49;48.30;32.02;70.87;;
69609;Laerm;56815;52.320;4.858;2023-11-18T00:11:05;36.40;32.40;48.21;;
69609;Laerm;56815;52.320;4.858;2023-11-18T00:13:18;44.88;30.83;65.67;;
69609;Laerm;56815;52.320;4.858;2023-11-18T00:13:28;45.39;31.13;64.28;;
69609;Laerm;56815;52.320;4.858;2023-11-18T00:14:04;41.55;31.45;58.05;;
69609;Laerm;56815;52.320;4.858;2023-11-18T00:16:56;48.46;31.34;66.76;;
69609;Laerm;56815;52.320;4.858;2023-11-18T00:17:21;49.39;31.40;64.60;;
69609;Laerm;56815;52.320;4.858;2023-11-18T00:17:32;55.35;31.74;75.53;;
69609;Laerm;56815;52.320;4.858;2023-11-18T00:17:42;49.94;31.67;67.46;;
69609;Laerm;56815;52.320;4.858;2023-11-18T00:17:53;47.90;31.94;62.05;;
69609;Laerm;56815;52.320;4.858;2023-11-18T00:18:03;41.14;32.65;55.25;;
69609;Laerm;56815;52.320;4.858;2023-11-18T00:18:13;55.13;32.34;73.59;;
69609;Laerm;56815;52.320;4.858;2023-11-18T00:18:23;50.84;33.13;67.43;;
69609;Laerm;56815;52.320;4.858;2023-11-18T00:18:34;51.06;31.94;66.76;;
69609;Laerm;56815;52.320;4.858;2023-11-18T00:18:44;53.21;34.27;73.04;;
69609;Laerm;56815;52.320;4.858;2023-11-18T00:20:02;51.01;30.97;72.42;;
69609;Laerm;56815;52.320;4.858;2023-11-18T00:20:19;38.17;30.46;53.00;;
69609;Laerm;56815;52.320;4.858;2023-11-18T00:20:30;36.30;30.73;46.67;;
69609;Laerm;56815;52.320;4.858;2023-11-18T00:20:43;52.79;31.93;73.37;;
69609;Laerm;56815;52.320;4.858;2023-11-18T00:20:57;40.56;31.70;54.00;;
69609;Laerm;56815;52.320;4.858;2023-11-18T00:21:07;38.35;32.15;49.25;;
69609;Laerm;56815;52.320;4.858;2023-11-18T00:21:18;48.70;32.64;65.69;;
69609;Laerm;56815;52.320;4.858;2023-11-18T00:21:33;45.57;32.34;60.55;;
69609;Laerm;56815;52.320;4.858;2023-11-18T00:22:18;40.26;31.49;56.73;;
69609;Laerm;56815;52.320;4.858;2023-11-18T00:22:31;41.00;30.87;56.65;;
69609;Laerm;56815;52.320;4.858;2023-11-18T00:22:42;43.28;30.79;62.75;;
69609;Laerm;56815;52.320;4.858;2023-11-18T00:23:31;52.13;30.75;73.30;;
69609;Laerm;56815;52.320;4.858;2023-11-18T00:23:41;48.34;30.87;65.69;;
69609;Laerm;56815;52.320;4.858;2023-11-18T00:23:51;46.22;32.75;61.48;;
69609;Laerm;56815;52.320;4.858;2023-11-18T00:24:14;46.44;30.81;65.19;;
69609;Laerm;56815;52.320;4.858;2023-11-18T00:24:52;44.54;30.65;67.12;;
69609;Laerm;56815;52.320;4.858;2023-11-18T00:25:04;47.54;31.00;68.57;;
69609;Laerm;56815;52.320;4.858;2023-11-18T00:26:03;41.23;31.70;58.55;;
69609;Laerm;56815;52.320;4.858;2023-11-18T00:26:53;45.41;31.24;61.13;;
69609;Laerm;56815;52.320;4.858;2023-11-18T00:27:07;47.92;32.90;67.72;;
69609;Laerm;56815;52.320;4.858;2023-11-18T00:52:44;32.73;30.17;47.88;;
69609;Laerm;56815;52.320;4.858;2023-11-18T00:54:07;32.50;30.30;34.57;;
69609;Laerm;56815;52.320;4.858;2023-11-18T00:55:11;32.18;30.09;40.58;;
69609;Laerm;56815;52.320;4.858;2023-11-18T00:55:42;31.28;29.37;33.93;;
69609;Laerm;56815;52.320;4.858;2023-11-18T01:27:50;32.37;29.59;36.09;;
69609;Laerm;56815;52.320;4.858;2023-11-18T01:28:01;32.31;30.00;35.59;;
69609;Laerm;56815;52.320;4.858;2023-11-18T01:28:14;33.75;31.48;37.34;;
69609;Laerm;56815;52.320;4.858;2023-11-18T01:28:33;40.99;33.60;53.38;;
69609;Laerm;56815;52.320;4.858;2023-11-18T01:29:34;32.62;29.97;41.81;;
69609;Laerm;56815;52.320;4.858;2023-11-18T01:29:44;32.13;30.25;34.74;;
69609;Laerm;56815;52.320;4.858;2023-11-18T01:37:28;32.15;29.48;36.09;;
69609;Laerm;56815;52.320;4.858;2023-11-18T01:37:44;32.04;30.14;34.59;;
69609;Laerm;56815;52.320;4.858;2023-11-18T01:38:06;32.53;30.49;34.63;;
69609;Laerm;56815;52.320;4.858;2023-11-18T01:38:22;32.90;30.54;35.63;;
69609;Laerm;56815;52.320;4.858;2023-11-18T02:07:46;32.09;29.59;35.06;;
69609;Laerm;56815;52.320;4.858;2023-11-18T02:08:45;31.70;29.38;42.56;;
69609;Laerm;56815;52.320;4.858;2023-11-18T02:08:55;31.77;29.62;34.97;;
69609;Laerm;56815;52.320;4.858;2023-11-18T02:09:12;38.69;32.34;41.84;;
69609;Laerm;56815;52.320;4.858;2023-11-18T02:10:00;33.51;29.74;40.34;;
69609;Laerm;56815;52.320;4.858;2023-11-18T02:10:18;31.98;29.37;36.03;;
69609;Laerm;56815;52.320;4.858;2023-11-18T02:10:29;31.29;29.45;33.76;;
69609;Laerm;56815;52.320;4.858;2023-11-18T02:10:43;31.91;29.91;36.96;;
69609;Laerm;56815;52.320;4.858;2023-11-18T02:10:58;33.78;29.82;41.70;;
69609;Laerm;56815;52.320;4.858;2023-11-18T02:11:28;36.36;31.67;42.54;;
69609;Laerm;56815;52.320;4.858;2023-11-18T02:18:31;33.04;30.45;37.62;;
69609;Laerm;56815;52.320;4.858;2023-11-18T02:18:47;32.53;30.20;35.97;;
69609;Laerm;56815;52.320;4.858;2023-11-18T02:19:04;32.96;30.64;43.49;;
69609;Laerm;56815;52.320;4.858;2023-11-18T02:20:07;32.50;30.11;36.44;;
69609;Laerm;56815;52.320;4.858;2023-11-18T02:20:25;32.06;29.91;34.96;;
69609;Laerm;56815;52.320;4.858;2023-11-18T02:20:36;32.42;30.05;35.22;;
69609;Laerm;56815;52.320;4.858;2023-11-18T02:20:48;32.65;30.52;34.99;;
69609;Laerm;56815;52.320;4.858;2023-11-18T02:21:08;32.80;30.61;36.64;;
69609;Laerm;56815;52.320;4.858;2023-11-18T02:21:20;33.12;31.03;35.59;;
69609;Laerm;56815;52.320;4.858;2023-11-18T02:21:33;33.39;30.95;36.04;;
69609;Laerm;56815;52.320;4.858;2023-11-18T02:21:44;32.69;30.51;34.97;;
69609;Laerm;56815;52.320;4.858;2023-11-18T02:25:22;32.12;29.60;35.02;;
69609;Laerm;56815;52.320;4.858;2023-11-18T02:25:42;31.53;29.25;35.07;;
69609;Laerm;56815;52.320;4.858;2023-11-18T02:25:54;31.96;29.99;35.21;;
69609;Laerm;56815;52.320;4.858;2023-11-18T02:26:28;31.59;29.70;34.07;;
69609;Laerm;56815;52.320;4.858;2023-11-18T02:26:41;31.69;29.85;34.31;;
69609;Laerm;56815;52.320;4.858;2023-11-18T02:33:12;32.30;29.38;40.45;;
69609;Laerm;56815;52.320;4.858;2023-11-18T02:33:49;32.38;30.17;34.98;;
69609;Laerm;56815;52.320;4.858;2023-11-18T02:34:20;32.24;29.73;36.47;;
69609;Laerm;56815;52.320;4.858;2023-11-18T02:34:40;31.59;29.54;35.47;;
69609;Laerm;56815;52.320;4.858;2023-11-18T02:34:56;31.40;29.68;33.28;;
69609;Laerm;56815;52.320;4.858;2023-11-18T02:35:20;31.81;29.88;34.41;;
69609;Laerm;56815;52.320;4.858;2023-11-18T02:35:36;31.86;30.18;35.11;;
69609;Laerm;56815;52.320;4.858;2023-11-18T02:35:51;32.15;30.48;34.34;;
69609;Laerm;56815;52.320;4.858;2023-11-18T02:36:05;31.97;29.50;34.63;;
69609;Laerm;56815;52.320;4.858;2023-11-18T02:36:31;32.09;29.95;34.40;;
69609;Laerm;56815;52.320;4.858;2023-11-18T02:37:05;32.74;30.29;35.95;;
69609;Laerm;56815;52.320;4.858;2023-11-18T02:37:16;33.30;31.03;35.59;;
69609;Laerm;56815;52.320;4.858;2023-11-18T02:37:27;32.60;30.56;34.90;;
69609;Laerm;56815;52.320;4.858;2023-11-18T02:37:42;32.96;30.46;35.40;;
69609;Laerm;56815;52.320;4.858;2023-11-18T02:37:55;34.00;31.62;36.91;;
69609;Laerm;56815;52.320;4.858;2023-11-18T02:38:05;33.54;31.90;36.51;;
69609;Laerm;56815;52.320;4.858;2023-11-18T02:38:27;33.58;31.06;37.01;;
69609;Laerm;56815;52.320;4.858;2023-11-18T02:38:42;32.89;30.66;37.88;;
69609;Laerm;56815;52.320;4.858;2023-11-18T02:39:39;32.28;30.46;34.36;;
69609;Laerm;56815;52.320;4.858;2023-11-18T02:39:57;31.76;29.94;33.62;;
69609;Laerm;56815;52.320;4.858;2023-11-18T02:40:11;33.18;29.45;37.56;;
69609;Laerm;56815;52.320;4.858;2023-11-18T02:40:37;39.18;30.64;48.45;;
69609;Laerm;56815;52.320;4.858;2023-11-18T02:40:49;31.52;29.33;35.20;;
69609;Laerm;56815;52.320;4.858;2023-11-18T02:41:04;31.51;29.48;34.73;;
69609;Laerm;56815;52.320;4.858;2023-11-18T02:41:18;31.51;29.45;35.22;;
69609;Laerm;56815;52.320;4.858;2023-11-18T02:41:30;31.54;29.75;33.75;;
69609;Laerm;56815;52.320;4.858;2023-11-18T02:41:41;32.15;29.85;34.23;;
69609;Laerm;56815;52.320;4.858;2023-11-18T02:42:07;32.39;30.32;35.08;;
69609;Laerm;56815;52.320;4.858;2023-11-18T02:42:20;31.94;30.12;34.71;;
69609;Laerm;56815;52.320;4.858;2023-11-18T02:42:33;32.28;30.60;34.62;;
69609;Laerm;56815;52.320;4.858;2023-11-18T02:42:48;31.87;30.17;34.59;;
69609;Laerm;56815;52.320;4.858;2023-11-18T02:43:08;32.10;29.77;34.90;;
69609;Laerm;56815;52.320;4.858;2023-11-18T02:43:23;33.26;30.46;36.68;;
69609;Laerm;56815;52.320;4.858;2023-11-18T02:43:34;33.29;31.40;36.00;;
69609;Laerm;56815;52.320;4.858;2023-11-18T02:43:46;33.12;31.12;35.58;;
69609;Laerm;56815;52.320;4.858;2023-11-18T02:44:06;32.77;30.77;35.07;;
69609;Laerm;56815;52.320;4.858;2023-11-18T02:44:20;33.18;31.08;36.02;;
69609;Laerm;56815;52.320;4.858;2023-11-18T02:44:34;33.47;31.62;36.59;;
69609;Laerm;56815;52.320;4.858;2023-11-18T02:44:45;33.49;31.67;36.56;;
69609;Laerm;56815;52.320;4.858;2023-11-18T02:44:56;33.76;31.77;36.18;;
69609;Laerm;56815;52.320;4.858;2023-11-18T02:45:09;33.48;31.70;35.66;;
69609;Laerm;56815;52.320;4.858;2023-11-18T02:45:22;32.92;30.63;35.26;;
69609;Laerm;56815;52.320;4.858;2023-11-18T02:45:34;32.19;30.24;33.98;;
69609;Laerm;56815;52.320;4.858;2023-11-18T02:46:03;32.89;31.14;35.26;;
69609;Laerm;56815;52.320;4.858;2023-11-18T02:46:24;32.93;30.36;44.71;;
69609;Laerm;56815;52.320;4.858;2023-11-18T02:46:37;33.65;31.49;36.67;;
69609;Laerm;56815;52.320;4.858;2023-11-18T02:47:00;34.40;31.81;37.58;;
69609;Laerm;56815;52.320;4.858;2023-11-18T02:47:11;33.66;31.31;36.16;;
69609;Laerm;56815;52.320;4.858;2023-11-18T02:47:22;33.77;31.73;36.43;;
69609;Laerm;56815;52.320;4.858;2023-11-18T02:47:32;33.78;31.45;37.04;;
69609;Laerm;56815;52.320;4.858;2023-11-18T02:47:46;34.47;31.75;39.12;;
69609;Laerm;56815;52.320;4.858;2023-11-18T02:47:57;32.97;31.04;34.93;;
69609;Laerm;56815;52.320;4.858;2023-11-18T02:48:08;33.60;31.63;36.27;;
69609;Laerm;56815;52.320;4.858;2023-11-18T02:48:21;33.69;31.69;36.06;;
69609;Laerm;56815;52.320;4.858;2023-11-18T02:48:34;33.36;30.97;36.21;;
69609;Laerm;56815;52.320;4.858;2023-11-18T02:48:47;33.70;31.17;37.56;;
69609;Laerm;56815;52.320;4.858;2023-11-18T02:48:58;34.65;32.12;37.34;;
69609;Laerm;56815;52.320;4.858;2023-11-18T02:49:19;33.63;31.10;36.95;;
69609;Laerm;56815;52.320;4.858;2023-11-18T02:49:30;32.84;30.96;34.78;;
69609;Laerm;56815;52.320;4.858;2023-11-18T02:49:54;33.07;31.24;35.59;;
69609;Laerm;56815;52.320;4.858;2023-11-18T02:50:06;33.76;31.75;35.83;;
69609;Laerm;56815;52.320;4.858;2023-11-18T02:50:20;33.43;31.12;35.72;;
69609;Laerm;56815;52.320;4.858;2023-11-18T02:50:31;32.82;31.19;34.87;;
69609;Laerm;56815;52.320;4.858;2023-11-18T02:50:44;32.33;30.64;34.95;;
69609;Laerm;56815;52.320;4.858;2023-11-18T02:50:57;32.72;30.34;35.12;;
69609;Laerm;56815;52.320;4.858;2023-11-18T02:51:13;33.66;31.75;36.64;;
69609;Laerm;56815;52.320;4.858;2023-11-18T02:51:23;33.00;30.95;36.26;;
69609;Laerm;56815;52.320;4.858;2023-11-18T02:51:34;33.77;30.94;47.74;;
69609;Laerm;56815;52.320;4.858;2023-11-18T02:52:37;32.82;30.20;37.08;;
69609;Laerm;56815;52.320;4.858;2023-11-18T02:52:48;34.21;31.92;36.97;;
69609;Laerm;56815;52.320;4.858;2023-11-18T02:52:58;32.87;30.85;34.80;;
69609;Laerm;56815;52.320;4.858;2023-11-18T02:53:09;32.88;31.15;35.10;;
69609;Laerm;56815;52.320;4.858;2023-11-18T02:53:19;33.06;31.33;37.14;;
69609;Laerm;56815;52.320;4.858;2023-11-18T02:53:29;32.39;30.78;34.71;;
69609;Laerm;56815;52.320;4.858;2023-11-18T02:53:40;32.67;30.51;35.47;;
69609;Laerm;56815;52.320;4.858;2023-11-18T02:53:51;33.05;31.38;35.20;;
69609;Laerm;56815;52.320;4.858;2023-11-18T02:54:11;32.84;30.87;35.36;;
69609;Laerm;56815;52.320;4.858;2023-11-18T02:54:27;33.05;30.33;37.19;;
69609;Laerm;56815;52.320;4.858;2023-11-18T02:54:40;33.33;30.71;36.84;;
69609;Laerm;56815;52.320;4.858;2023-11-18T02:54:50;33.30;31.18;36.16;;
69609;Laerm;56815;52.320;4.858;2023-11-18T02:55:01;33.13;31.07;35.82;;
69609;Laerm;56815;52.320;4.858;2023-11-18T02:55:11;32.87;31.02;35.63;;
69609;Laerm;56815;52.320;4.858;2023-11-18T02:55:21;33.05;30.91;36.32;;
69609;Laerm;56815;52.320;4.858;2023-11-18T02:55:32;33.56;31.45;36.08;;
69609;Laerm;56815;52.320;4.858;2023-11-18T02:55:43;33.00;31.10;34.97;;
69609;Laerm;56815;52.320;4.858;2023-11-18T02:55:53;32.98;30.63;35.07;;
69609;Laerm;56815;52.320;4.858;2023-11-18T02:56:03;33.28;30.35;36.63;;
69609;Laerm;56815;52.320;4.858;2023-11-18T02:56:16;32.02;30.03;34.83;;
69609;Laerm;56815;52.320;4.858;2023-11-18T02:56:31;32.09;30.31;35.51;;
69609;Laerm;56815;52.320;4.858;2023-11-18T02:56:41;31.70;29.90;34.49;;
69609;Laerm;56815;52.320;4.858;2023-11-18T02:57:02;31.89;29.62;36.25;;
69609;Laerm;56815;52.320;4.858;2023-11-18T02:57:13;32.03;30.15;34.61;;
69609;Laerm;56815;52.320;4.858;2023-11-18T02:57:23;31.70;30.04;33.42;;
69609;Laerm;56815;52.320;4.858;2023-11-18T02:57:37;31.74;30.09;33.69;;
69609;Laerm;56815;52.320;4.858;2023-11-18T02:57:51;32.62;30.64;34.76;;
69609;Laerm;56815;52.320;4.858;2023-11-18T02:58:04;33.78;31.20;36.57;;
69609;Laerm;56815;52.320;4.858;2023-11-18T02:58:15;33.09;31.10;42.68;;
69609;Laerm;56815;52.320;4.858;2023-11-18T02:58:29;32.75;30.98;36.80;;
69609;Laerm;56815;52.320;4.858;2023-11-18T02:58:39;32.62;30.18;36.70;;
69609;Laerm;56815;52.320;4.858;2023-11-18T02:58:49;32.35;30.18;39.62;;
69609;Laerm;56815;52.320;4.858;2023-11-18T02:59:03;32.30;31.01;35.46;;
69609;Laerm;56815;52.320;4.858;2023-11-18T02:59:19;32.21;29.71;42.87;;
69609;Laerm;56815;52.320;4.858;2023-11-18T02:59:30;32.69;30.15;44.41;;
69609;Laerm;56815;52.320;4.858;2023-11-18T02:59:40;32.76;30.31;35.18;;
69609;Laerm;56815;52.320;4.858;2023-11-18T02:59:51;33.12;31.63;36.06;;
69609;Laerm;56815;52.320;4.858;2023-11-18T03:00:01;32.61;29.94;35.30;;
69609;Laerm;56815;52.320;4.858;2023-11-18T03:00:14;31.74;30.01;33.95;;
69609;Laerm;56815;52.320;4.858;2023-11-18T03:00:32;32.29;29.70;41.82;;
69609;Laerm;56815;52.320;4.858;2023-11-18T03:00:45;32.89;30.07;36.25;;
69609;Laerm;56815;52.320;4.858;2023-11-18T03:01:14;32.71;30.40;35.58;;
69609;Laerm;56815;52.320;4.858;2023-11-18T03:01:38;32.63;30.68;36.45;;
69609;Laerm;56815;52.320;4.858;2023-11-18T03:01:54;32.97;30.53;36.07;;
69609;Laerm;56815;52.320;4.858;2023-11-18T03:02:10;33.75;31.34;37.39;;
69609;Laerm;56815;52.320;4.858;2023-11-18T03:02:21;32.30;30.43;35.29;;
69609;Laerm;56815;52.320;4.858;2023-11-18T03:02:31;33.72;30.40;47.11;;
69609;Laerm;56815;52.320;4.858;2023-11-18T03:02:41;39.77;31.66;48.79;;
69609;Laerm;56815;52.320;4.858;2023-11-18T03:02:55;32.32;30.45;35.74;;
69609;Laerm;56815;52.320;4.858;2023-11-18T03:03:08;33.76;30.68;38.41;;
69609;Laerm;56815;52.320;4.858;2023-11-18T03:03:25;33.15;30.09;38.39;;
69609;Laerm;56815;52.320;4.858;2023-11-18T03:03:37;32.19;29.79;35.07;;
69609;Laerm;56815;52.320;4.858;2023-11-18T03:03:47;32.64;30.54;35.07;;
69609;Laerm;56815;52.320;4.858;2023-11-18T03:04:06;32.55;30.62;35.35;;
69609;Laerm;56815;52.320;4.858;2023-11-18T03:04:21;32.80;30.54;36.26;;
69609;Laerm;56815;52.320;4.858;2023-11-18T03:04:31;33.07;30.59;35.76;;
69609;Laerm;56815;52.320;4.858;2023-11-18T03:04:44;32.07;30.33;33.89;;
69609;Laerm;56815;52.320;4.858;2023-11-18T03:04:55;32.06;30.56;35.04;;
69609;Laerm;56815;52.320;4.858;2023-11-18T03:05:06;32.48;30.12;36.34;;
69609;Laerm;56815;52.320;4.858;2023-11-18T03:05:18;32.74;30.34;37.08;;
69609;Laerm;56815;52.320;4.858;2023-11-18T03:05:28;32.93;30.77;35.93;;
69609;Laerm;56815;52.320;4.858;2023-11-18T03:05:40;32.64;31.03;35.31;;
69609;Laerm;56815;52.320;4.858;2023-11-18T03:05:50;32.06;30.48;34.83;;
69609;Laerm;56815;52.320;4.858;2023-11-18T03:06:01;31.42;29.91;33.66;;
69609;Laerm;56815;52.320;4.858;2023-11-18T03:06:11;31.28;29.61;33.28;;
69609;Laerm;56815;52.320;4.858;2023-11-18T03:06:21;31.52;29.71;33.59;;
69609;Laerm;56815;52.320;4.858;2023-11-18T03:06:36;31.70;29.79;40.75;;
69609;Laerm;56815;52.320;4.858;2023-11-18T03:07:21;31.62;29.35;36.25;;
69609;Laerm;56815;52.320;4.858;2023-11-18T03:07:31;32.70;30.73;35.15;;
69609;Laerm;56815;52.320;4.858;2023-11-18T03:07:49;33.58;31.36;36.76;;
69609;Laerm;56815;52.320;4.858;2023-11-18T03:08:00;33.61;31.51;36.69;;
69609;Laerm;56815;52.320;4.858;2023-11-18T03:08:13;32.98;30.32;35.05;;
69609;Laerm;56815;52.320;4.858;2023-11-18T03:08:24;32.87;29.66;36.18;;
69609;Laerm;56815;52.320;4.858;2023-11-18T03:08:34;32.08;29.93;36.25;;
69609;Laerm;56815;52.320;4.858;2023-11-18T03:08:44;32.31;30.27;34.88;;
69609;Laerm;56815;52.320;4.858;2023-11-18T03:08:58;33.20;30.82;35.90;;
69609;Laerm;56815;52.320;4.858;2023-11-18T03:09:17;33.55;31.02;36.07;;
69609;Laerm;56815;52.320;4.858;2023-11-18T03:09:32;32.83;30.30;35.71;;
69609;Laerm;56815;52.320;4.858;2023-11-18T03:09:44;32.91;30.30;36.11;;
69609;Laerm;56815;52.320;4.858;2023-11-18T03:09:56;33.02;30.91;35.25;;
69609;Laerm;56815;52.320;4.858;2023-11-18T03:10:07;32.36;30.57;35.61;;
69609;Laerm;56815;52.320;4.858;2023-11-18T03:10:22;32.73;30.97;34.96;;
69609;Laerm;56815;52.320;4.858;2023-11-18T03:10:33;33.37;31.10;39.79;;
69609;Laerm;56815;52.320;4.858;2023-11-18T03:10:44;32.87;30.88;35.22;;
69609;Laerm;56815;52.320;4.858;2023-11-18T03:10:55;32.37;30.33;35.52;;
69609;Laerm;56815;52.320;4.858;2023-11-18T03:11:05;32.45;30.64;34.53;;
69609;Laerm;56815;52.320;4.858;2023-11-18T03:11:19;32.57;30.39;35.38;;
69609;Laerm;56815;52.320;4.858;2023-11-18T03:11:32;32.28;30.64;35.11;;
69609;Laerm;56815;52.320;4.858;2023-11-18T03:11:52;32.91;31.00;35.24;;
69609;Laerm;56815;52.320;4.858;2023-11-18T03:12:08;32.38;30.49;35.15;;
69609;Laerm;56815;52.320;4.858;2023-11-18T03:12:24;32.87;30.47;35.37;;
69609;Laerm;56815;52.320;4.858;2023-11-18T03:12:37;32.58;30.70;36.59;;
69609;Laerm;56815;52.320;4.858;2023-11-18T03:12:48;33.37;31.33;36.02;;
69609;Laerm;56815;52.320;4.858;2023-11-18T03:12:58;33.18;30.51;36.33;;
69609;Laerm;56815;52.320;4.858;2023-11-18T03:13:09;33.22;30.98;45.49;;
69609;Laerm;56815;52.320;4.858;2023-11-18T03:13:19;32.22;30.37;38.45;;
69609;Laerm;56815;52.320;4.858;2023-11-18T03:13:30;31.78;30.22;35.47;;
69609;Laerm;56815;52.320;4.858;2023-11-18T03:13:43;32.30;30.30;41.61;;
69609;Laerm;56815;52.320;4.858;2023-11-18T03:13:53;32.04;30.29;34.92;;
69609;Laerm;56815;52.320;4.858;2023-11-18T03:14:03;31.97;29.95;34.70;;
69609;Laerm;56815;52.320;4.858;2023-11-18T03:14:18;32.34;30.45;35.97;;
69609;Laerm;56815;52.320;4.858;2023-11-18T03:14:31;53.04;30.70;71.46;;
69609;Laerm;56815;52.320;4.858;2023-11-18T03:14:42;37.25;30.49;55.97;;
69609;Laerm;56815;52.320;4.858;2023-11-18T03:14:53;33.69;30.18;52.41;;
69609;Laerm;56815;52.320;4.858;2023-11-18T03:15:06;31.71;29.82;34.99;;
69609;Laerm;56815;52.320;4.858;2023-11-18T03:15:21;32.02;29.90;36.18;;
69609;Laerm;56815;52.320;4.858;2023-11-18T03:15:32;32.86;30.67;36.28;;
69609;Laerm;56815;52.320;4.858;2023-11-18T03:15:42;32.30;30.82;34.26;;
69609;Laerm;56815;52.320;4.858;2023-11-18T03:15:53;32.02;30.39;35.26;;
69609;Laerm;56815;52.320;4.858;2023-11-18T03:16:06;32.70;31.05;38.01;;
69609;Laerm;56815;52.320;4.858;2023-11-18T03:16:19;32.13;30.27;35.12;;
69609;Laerm;56815;52.320;4.858;2023-11-18T03:16:30;32.93;30.13;36.31;;
69609;Laerm;56815;52.320;4.858;2023-11-18T03:16:43;32.49;30.03;34.92;;
69609;Laerm;56815;52.320;4.858;2023-11-18T03:16:56;33.78;31.57;37.89;;
69609;Laerm;56815;52.320;4.858;2023-11-18T03:17:09;33.08;30.16;36.82;;
69609;Laerm;56815;52.320;4.858;2023-11-18T03:17:20;32.35;30.44;35.93;;
69609;Laerm;56815;52.320;4.858;2023-11-18T03:17:33;33.68;31.05;36.95;;
69609;Laerm;56815;52.320;4.858;2023-11-18T03:17:46;34.02;31.51;38.03;;
69609;Laerm;56815;52.320;4.858;2023-11-18T03:18:01;33.62;30.79;37.12;;
69609;Laerm;56815;52.320;4.858;2023-11-18T03:18:11;39.50;31.87;57.32;;
69609;Laerm;56815;52.320;4.858;2023-11-18T03:18:22;39.21;31.57;53.46;;
69609;Laerm;56815;52.320;4.858;2023-11-18T03:18:32;35.14;32.23;40.92;;
69609;Laerm;56815;52.320;4.858;2023-11-18T03:19:27;38.49;31.01;56.98;;
69609;Laerm;56815;52.320;4.858;2023-11-18T03:19:52;35.38;31.63;40.78;;
69609;Laerm;56815;52.320;4.858;2023-11-18T03:20:04;36.10;31.74;41.49;;
69609;Laerm;56815;52.320;4.858;2023-11-18T03:20:20;32.79;30.35;38.07;;
69609;Laerm;56815;52.320;4.858;2023-11-18T03:20:33;32.21;30.49;37.27;;
69609;Laerm;56815;52.320;4.858;2023-11-18T03:20:43;31.70;30.00;34.68;;
69609;Laerm;56815;52.320;4.858;2023-11-18T03:20:53;32.10;30.25;35.17;;
69609;Laerm;56815;52.320;4.858;2023-11-18T03:21:04;32.85;29.74;35.52;;
69609;Laerm;56815;52.320;4.858;2023-11-18T03:21:16;32.80;30.14;35.50;;
69609;Laerm;56815;52.320;4.858;2023-11-18T03:22:23;33.47;30.59;37.78;;
69609;Laerm;56815;52.320;4.858;2023-11-18T03:22:42;33.56;31.20;35.98;;
69609;Laerm;56815;52.320;4.858;2023-11-18T03:22:53;32.97;30.67;36.68;;
69609;Laerm;56815;52.320;4.858;2023-11-18T03:23:04;33.06;31.26;35.92;;
69609;Laerm;56815;52.320;4.858;2023-11-18T03:23:17;33.19;30.59;35.40;;
69609;Laerm;56815;52.320;4.858;2023-11-18T03:23:27;33.14;31.13;36.34;;
69609;Laerm;56815;52.320;4.858;2023-11-18T03:23:39;32.94;30.22;35.59;;
69609;Laerm;56815;52.320;4.858;2023-11-18T03:25:22;33.35;31.29;35.74;;
69609;Laerm;56815;52.320;4.858;2023-11-18T03:25:33;33.38;31.52;35.48;;
69609;Laerm;56815;52.320;4.858;2023-11-18T03:25:51;35.11;32.64;37.24;;
69609;Laerm;56815;52.320;4.858;2023-11-18T03:27:25;34.57;31.69;41.35;;
69609;Laerm;56815;52.320;4.858;2023-11-18T03:27:36;33.95;31.59;44.45;;
69609;Laerm;56815;52.320;4.858;2023-11-18T03:27:49;34.40;32.17;37.17;;
69609;Laerm;56815;52.320;4.858;2023-11-18T03:29:42;33.66;30.70;43.37;;
69609;Laerm;56815;52.320;4.858;2023-11-18T03:30:33;33.95;31.31;38.57;;
69609;Laerm;56815;52.320;4.858;2023-11-18T03:30:55;33.39;30.82;35.99;;
69609;Laerm;56815;52.320;4.858;2023-11-18T03:31:06;33.25;30.85;35.48;;
69609;Laerm;56815;52.320;4.858;2023-11-18T03:31:16;33.77;31.02;39.86;;
69609;Laerm;56815;52.320;4.858;2023-11-18T03:32:15;33.49;30.80;37.18;;
69609;Laerm;56815;52.320;4.858;2023-11-18T03:32:58;34.46;31.07;46.20;;
69609;Laerm;56815;52.320;4.858;2023-11-18T03:33:09;34.63;32.43;36.59;;
69609;Laerm;56815;52.320;4.858;2023-11-18T03:33:22;33.89;31.62;36.82;;
69609;Laerm;56815;52.320;4.858;2023-11-18T03:33:32;33.63;31.52;36.08;;
69609;Laerm;56815;52.320;4.858;2023-11-18T03:35:52;33.65;30.95;39.19;;
69609;Laerm;56815;52.320;4.858;2023-11-18T03:36:02;32.63;30.81;34.14;;
69609;Laerm;56815;52.320;4.858;2023-11-18T03:36:22;32.77;31.05;35.66;;
69609;Laerm;56815;52.320;4.858;2023-11-18T03:37:13;33.04;30.74;37.79;;
69609;Laerm;56815;52.320;4.858;2023-11-18T03:37:49;33.30;31.02;37.74;;
69609;Laerm;56815;52.320;4.858;2023-11-18T03:37:59;32.35;30.50;35.15;;
69609;Laerm;56815;52.320;4.858;2023-11-18T03:38:10;32.69;31.01;34.78;;
69609;Laerm;56815;52.320;4.858;2023-11-18T03:38:23;33.50;31.26;36.21;;
69609;Laerm;56815;52.320;4.858;2023-11-18T03:38:34;33.46;31.69;35.13;;
69609;Laerm;56815;52.320;4.858;2023-11-18T03:39:03;32.80;30.96;34.88;;
69609;Laerm;56815;52.320;4.858;2023-11-18T03:40:00;33.10;30.81;36.20;;
69609;Laerm;56815;52.320;4.858;2023-11-18T03:40:12;32.76;30.49;34.98;;
69609;Laerm;56815;52.320;4.858;2023-11-18T03:40:22;32.98;31.19;34.35;;
69609;Laerm;56815;52.320;4.858;2023-11-18T03:40:35;35.79;31.59;52.10;;
69609;Laerm;56815;52.320;4.858;2023-11-18T03:40:46;33.76;31.52;41.10;;
69609;Laerm;56815;52.320;4.858;2023-11-18T03:40:56;32.93;30.72;35.18;;
69609;Laerm;56815;52.320;4.858;2023-11-18T03:41:08;32.99;30.97;34.97;;
69609;Laerm;56815;52.320;4.858;2023-11-18T03:41:21;32.82;30.89;35.29;;
69609;Laerm;56815;52.320;4.858;2023-11-18T03:42:01;33.20;30.75;37.94;;
69609;Laerm;56815;52.320;4.858;2023-11-18T03:42:19;32.85;30.29;35.94;;
69609;Laerm;56815;52.320;4.858;2023-11-18T03:43:01;33.35;30.58;35.95;;
69609;Laerm;56815;52.320;4.858;2023-11-18T03:43:13;33.99;31.60;35.87;;
69609;Laerm;56815;52.320;4.858;2023-11-18T03:44:33;34.14;31.65;38.41;;
69609;Laerm;56815;52.320;4.858;2023-11-18T03:44:52;32.73;30.50;37.44;;
69609;Laerm;56815;52.320;4.858;2023-11-18T03:45:06;33.31;31.66;35.19;;
69609;Laerm;56815;52.320;4.858;2023-11-18T03:45:16;32.80;31.37;34.70;;
69609;Laerm;56815;52.320;4.858;2023-11-18T03:45:28;33.60;31.53;37.25;;
69609;Laerm;56815;52.320;4.858;2023-11-18T03:45:44;33.46;31.45;36.06;;
69609;Laerm;56815;52.320;4.858;2023-11-18T03:47:14;33.03;30.35;39.85;;